sensor_id;sensor_type;location;lat;lon;timestamp;temperature;humidity
22974;DHT22;11653;50.848;4.584;2022-11-15T00:00:28;12.90;99.90
22974;DHT22;11653;50.848;4.584;2022-11-15T00:02:54;12.90;99.90
22974;DHT22;11653;50.848;4.584;2022-11-15T00:05:20;12.90;99.90
22974;DHT22;11653;50.848;4.584;2022-11-15T00:07:46;12.90;99.90
22974;DHT22;11653;50.848;4.584;2022-11-15T00:10:12;12.90;99.90
22974;DHT22;11653;50.848;4.584;2022-11-15T00:12:38;12.90;99.90
22974;DHT22;11653;50.848;4.584;2022-11-15T00:15:04;12.90;99.90
22974;DHT22;11653;50.848;4.584;2022-11-15T00:17:30;13.00;99.90
22974;DHT22;11653;50.848;4.584;2022-11-15T00:19:56;12.90;99.90
22974;DHT22;11653;50.848;4.584;2022-11-15T00:22:21;13.00;99.90
22974;DHT22;11653;50.848;4.584;2022-11-15T00:24:47;13.00;99.90
22974;DHT22;11653;50.848;4.584;2022-11-15T00:27:13;13.00;99.90
22974;DHT22;11653;50.848;4.584;2022-11-15T00:29:38;13.10;99.90
22974;DHT22;11653;50.848;4.584;2022-11-15T00:32:09;13.10;99.90
22974;DHT22;11653;50.848;4.584;2022-11-15T00:34:34;13.10;99.90
22974;DHT22;11653;50.848;4.584;2022-11-15T00:37:00;13.10;99.90
22974;DHT22;11653;50.848;4.584;2022-11-15T00:39:26;13.20;99.90
22974;DHT22;11653;50.848;4.584;2022-11-15T00:41:51;13.20;99.90
22974;DHT22;11653;50.848;4.584;2022-11-15T00:44:17;13.20;99.90
22974;DHT22;11653;50.848;4.584;2022-11-15T00:46:42;13.30;99.90
22974;DHT22;11653;50.848;4.584;2022-11-15T00:49:08;13.20;99.90
22974;DHT22;11653;50.848;4.584;2022-11-15T00:51:34;13.30;99.90
22974;DHT22;11653;50.848;4.584;2022-11-15T00:53:59;13.20;99.90
22974;DHT22;11653;50.848;4.584;2022-11-15T00:56:25;13.30;99.90
22974;DHT22;11653;50.848;4.584;2022-11-15T00:58:50;13.30;99.90
22974;DHT22;11653;50.848;4.584;2022-11-15T01:01:17;13.30;99.90
22974;DHT22;11653;50.848;4.584;2022-11-15T01:03:43;13.30;99.90
22974;DHT22;11653;50.848;4.584;2022-11-15T01:06:11;13.40;99.90
22974;DHT22;11653;50.848;4.584;2022-11-15T01:08:40;13.40;99.90
22974;DHT22;11653;50.848;4.584;2022-11-15T01:11:09;13.40;99.90
22974;DHT22;11653;50.848;4.584;2022-11-15T01:13:37;13.40;99.90
22974;DHT22;11653;50.848;4.584;2022-11-15T01:16:11;13.40;99.90
22974;DHT22;11653;50.848;4.584;2022-11-15T01:18:37;13.50;99.90
22974;DHT22;11653;50.848;4.584;2022-11-15T01:21:21;13.50;99.90
22974;DHT22;11653;50.848;4.584;2022-11-15T01:23:47;13.50;99.90
22974;DHT22;11653;50.848;4.584;2022-11-15T01:26:14;13.50;99.90
22974;DHT22;11653;50.848;4.584;2022-11-15T01:28:41;13.50;99.90
22974;DHT22;11653;50.848;4.584;2022-11-15T01:31:14;13.60;99.90
22974;DHT22;11653;50.848;4.584;2022-11-15T01:33:40;13.60;99.90
22974;DHT22;11653;50.848;4.584;2022-11-15T01:36:10;13.70;99.90
22974;DHT22;11653;50.848;4.584;2022-11-15T01:38:35;13.60;99.90
22974;DHT22;11653;50.848;4.584;2022-11-15T01:41:01;13.60;99.90
22974;DHT22;11653;50.848;4.584;2022-11-15T01:43:33;13.60;99.90
22974;DHT22;11653;50.848;4.584;2022-11-15T01:48:32;13.60;99.90
22974;DHT22;11653;50.848;4.584;2022-11-15T01:51:04;13.60;99.90
22974;DHT22;11653;50.848;4.584;2022-11-15T01:53:32;13.70;99.90
22974;DHT22;11653;50.848;4.584;2022-11-15T01:55:59;13.60;99.90
22974;DHT22;11653;50.848;4.584;2022-11-15T01:58:27;13.60;99.90
22974;DHT22;11653;50.848;4.584;2022-11-15T02:00:52;13.60;99.90
22974;DHT22;11653;50.848;4.584;2022-11-15T02:03:19;13.60;99.90
22974;DHT22;11653;50.848;4.584;2022-11-15T02:05:45;13.60;99.90
22974;DHT22;11653;50.848;4.584;2022-11-15T02:08:11;13.70;99.90
22974;DHT22;11653;50.848;4.584;2022-11-15T02:10:45;13.70;99.90
22974;DHT22;11653;50.848;4.584;2022-11-15T02:13:15;13.80;99.90
22974;DHT22;11653;50.848;4.584;2022-11-15T02:18:35;13.70;99.90
22974;DHT22;11653;50.848;4.584;2022-11-15T02:38:21;13.80;99.90
22974;DHT22;11653;50.848;4.584;2022-11-15T02:41:01;13.80;99.90
22974;DHT22;11653;50.848;4.584;2022-11-15T02:49:26;13.80;99.90
22974;DHT22;11653;50.848;4.584;2022-11-15T02:51:55;13.70;99.90
22974;DHT22;11653;50.848;4.584;2022-11-15T02:54:28;13.60;99.90
22974;DHT22;11653;50.848;4.584;2022-11-15T02:56:58;13.60;99.90
22974;DHT22;11653;50.848;4.584;2022-11-15T03:04:54;13.70;99.90
22974;DHT22;11653;50.848;4.584;2022-11-15T03:07:32;13.70;99.90
22974;DHT22;11653;50.848;4.584;2022-11-15T03:10:22;13.70;99.90
22974;DHT22;11653;50.848;4.584;2022-11-15T03:13:06;13.70;99.90
22974;DHT22;11653;50.848;4.584;2022-11-15T03:15:39;13.70;99.90
22974;DHT22;11653;50.848;4.584;2022-11-15T03:20:42;13.80;99.90
22974;DHT22;11653;50.848;4.584;2022-11-15T03:23:10;13.70;99.90
22974;DHT22;11653;50.848;4.584;2022-11-15T03:25:41;13.70;99.90
22974;DHT22;11653;50.848;4.584;2022-11-15T03:28:11;13.70;99.90
22974;DHT22;11653;50.848;4.584;2022-11-15T03:30:39;13.70;99.90
22974;DHT22;11653;50.848;4.584;2022-11-15T03:33:05;13.70;99.90
22974;DHT22;11653;50.848;4.584;2022-11-15T03:35:38;13.70;99.90
22974;DHT22;11653;50.848;4.584;2022-11-15T03:40:40;13.70;99.90
22974;DHT22;11653;50.848;4.584;2022-11-15T03:46:04;13.80;99.90
22974;DHT22;11653;50.848;4.584;2022-11-15T03:48:37;13.70;99.90
22974;DHT22;11653;50.848;4.584;2022-11-15T03:51:04;13.70;99.90
22974;DHT22;11653;50.848;4.584;2022-11-15T03:53:30;13.60;99.90
22974;DHT22;11653;50.848;4.584;2022-11-15T03:55:57;13.60;99.90
22974;DHT22;11653;50.848;4.584;2022-11-15T03:58:23;13.70;99.90
22974;DHT22;11653;50.848;4.584;2022-11-15T04:00:48;13.70;99.90
22974;DHT22;11653;50.848;4.584;2022-11-15T04:03:14;13.70;99.90
22974;DHT22;11653;50.848;4.584;2022-11-15T04:05:40;13.60;99.90
22974;DHT22;11653;50.848;4.584;2022-11-15T04:08:05;13.60;99.90
22974;DHT22;11653;50.848;4.584;2022-11-15T04:10:31;13.60;99.90
22974;DHT22;11653;50.848;4.584;2022-11-15T04:12:56;13.60;99.90
22974;DHT22;11653;50.848;4.584;2022-11-15T04:15:25;13.50;99.90
22974;DHT22;11653;50.848;4.584;2022-11-15T04:17:53;13.60;99.90
22974;DHT22;11653;50.848;4.584;2022-11-15T04:20:21;13.50;99.90
22974;DHT22;11653;50.848;4.584;2022-11-15T04:23:11;13.30;99.90
22974;DHT22;11653;50.848;4.584;2022-11-15T04:25:59;13.30;99.90
22974;DHT22;11653;50.848;4.584;2022-11-15T04:28:25;13.30;99.90
22974;DHT22;11653;50.848;4.584;2022-11-15T04:30:51;13.30;99.90
22974;DHT22;11653;50.848;4.584;2022-11-15T04:33:16;13.20;99.90
22974;DHT22;11653;50.848;4.584;2022-11-15T04:35:42;13.40;99.90
22974;DHT22;11653;50.848;4.584;2022-11-15T04:38:10;13.30;99.90
22974;DHT22;11653;50.848;4.584;2022-11-15T04:40:36;13.30;99.90
22974;DHT22;11653;50.848;4.584;2022-11-15T04:43:03;13.20;99.90
22974;DHT22;11653;50.848;4.584;2022-11-15T04:45:29;13.30;99.90
22974;DHT22;11653;50.848;4.584;2022-11-15T04:47:55;13.40;99.90
22974;DHT22;11653;50.848;4.584;2022-11-15T04:50:20;13.20;99.90
22974;DHT22;11653;50.848;4.584;2022-11-15T04:52:53;13.20;99.90
22974;DHT22;11653;50.848;4.584;2022-11-15T04:55:20;13.20;99.90
22974;DHT22;11653;50.848;4.584;2022-11-15T04:57:45;13.00;99.90
22974;DHT22;11653;50.848;4.584;2022-11-15T05:00:13;13.00;99.90
22974;DHT22;11653;50.848;4.584;2022-11-15T05:02:39;13.00;99.90
22974;DHT22;11653;50.848;4.584;2022-11-15T05:05:24;12.90;99.90
22974;DHT22;11653;50.848;4.584;2022-11-15T05:07:50;12.90;99.90
22974;DHT22;11653;50.848;4.584;2022-11-15T05:10:16;12.80;99.90
22974;DHT22;11653;50.848;4.584;2022-11-15T05:12:42;12.90;99.90
22974;DHT22;11653;50.848;4.584;2022-11-15T05:15:08;12.80;99.90
22974;DHT22;11653;50.848;4.584;2022-11-15T05:17:33;12.90;99.90
22974;DHT22;11653;50.848;4.584;2022-11-15T05:19:59;12.80;99.90
22974;DHT22;11653;50.848;4.584;2022-11-15T05:22:25;12.80;99.90
22974;DHT22;11653;50.848;4.584;2022-11-15T05:24:51;12.70;99.90
22974;DHT22;11653;50.848;4.584;2022-11-15T05:27:16;12.70;99.90
22974;DHT22;11653;50.848;4.584;2022-11-15T05:29:42;12.70;99.90
22974;DHT22;11653;50.848;4.584;2022-11-15T05:32:09;12.70;99.90
22974;DHT22;11653;50.848;4.584;2022-11-15T05:34:35;12.60;99.90
22974;DHT22;11653;50.848;4.584;2022-11-15T05:37:01;12.60;99.90
22974;DHT22;11653;50.848;4.584;2022-11-15T05:39:28;12.50;99.90
22974;DHT22;11653;50.848;4.584;2022-11-15T05:42:13;12.50;99.90
22974;DHT22;11653;50.848;4.584;2022-11-15T05:44:42;12.40;99.90
22974;DHT22;11653;50.848;4.584;2022-11-15T05:47:13;12.30;99.90
22974;DHT22;11653;50.848;4.584;2022-11-15T05:49:42;12.30;99.90
22974;DHT22;11653;50.848;4.584;2022-11-15T05:52:11;12.20;99.90
22974;DHT22;11653;50.848;4.584;2022-11-15T05:54:39;12.10;99.90
22974;DHT22;11653;50.848;4.584;2022-11-15T05:57:05;12.10;99.90
22974;DHT22;11653;50.848;4.584;2022-11-15T05:59:31;12.10;99.90
22974;DHT22;11653;50.848;4.584;2022-11-15T06:01:58;12.00;99.90
22974;DHT22;11653;50.848;4.584;2022-11-15T06:04:24;12.00;99.90
22974;DHT22;11653;50.848;4.584;2022-11-15T06:06:50;12.00;99.90
22974;DHT22;11653;50.848;4.584;2022-11-15T06:09:15;12.00;99.90
22974;DHT22;11653;50.848;4.584;2022-11-15T06:45:36;11.30;99.90
22974;DHT22;11653;50.848;4.584;2022-11-15T06:48:01;11.30;99.90
22974;DHT22;11653;50.848;4.584;2022-11-15T06:50:27;11.30;99.90
22974;DHT22;11653;50.848;4.584;2022-11-15T06:52:53;11.10;99.90
22974;DHT22;11653;50.848;4.584;2022-11-15T06:55:19;11.20;99.90
22974;DHT22;11653;50.848;4.584;2022-11-15T06:57:50;11.10;99.90
22974;DHT22;11653;50.848;4.584;2022-11-15T07:00:17;11.10;99.90
22974;DHT22;11653;50.848;4.584;2022-11-15T07:02:43;11.00;99.90
22974;DHT22;11653;50.848;4.584;2022-11-15T07:05:10;11.00;99.90
22974;DHT22;11653;50.848;4.584;2022-11-15T07:07:35;10.90;99.90
22974;DHT22;11653;50.848;4.584;2022-11-15T07:10:01;11.00;99.90
22974;DHT22;11653;50.848;4.584;2022-11-15T07:12:27;11.00;99.90
22974;DHT22;11653;50.848;4.584;2022-11-15T07:14:52;11.00;99.90
22974;DHT22;11653;50.848;4.584;2022-11-15T07:17:18;11.00;99.90
22974;DHT22;11653;50.848;4.584;2022-11-15T07:19:43;11.00;99.90
22974;DHT22;11653;50.848;4.584;2022-11-15T07:22:09;11.00;99.90
22974;DHT22;11653;50.848;4.584;2022-11-15T07:24:35;11.10;99.90
22974;DHT22;11653;50.848;4.584;2022-11-15T07:27:00;11.10;99.90
22974;DHT22;11653;50.848;4.584;2022-11-15T07:29:26;11.20;99.90
22974;DHT22;11653;50.848;4.584;2022-11-15T07:31:52;11.10;99.90
22974;DHT22;11653;50.848;4.584;2022-11-15T07:34:17;11.10;99.90
22974;DHT22;11653;50.848;4.584;2022-11-15T07:36:43;11.10;99.90
22974;DHT22;11653;50.848;4.584;2022-11-15T07:39:08;11.20;99.90
22974;DHT22;11653;50.848;4.584;2022-11-15T07:41:35;11.20;99.90
22974;DHT22;11653;50.848;4.584;2022-11-15T07:44:00;11.30;99.90
22974;DHT22;11653;50.848;4.584;2022-11-15T07:46:27;11.20;99.90
22974;DHT22;11653;50.848;4.584;2022-11-15T07:48:52;11.30;99.90
22974;DHT22;11653;50.848;4.584;2022-11-15T07:51:18;11.40;99.90
22974;DHT22;11653;50.848;4.584;2022-11-15T07:53:44;11.30;99.90
22974;DHT22;11653;50.848;4.584;2022-11-15T07:56:10;11.40;99.90
22974;DHT22;11653;50.848;4.584;2022-11-15T07:58:36;11.50;99.90
22974;DHT22;11653;50.848;4.584;2022-11-15T08:01:06;11.50;99.90
22974;DHT22;11653;50.848;4.584;2022-11-15T08:03:32;11.70;99.90
22974;DHT22;11653;50.848;4.584;2022-11-15T08:05:58;11.60;99.90
22974;DHT22;11653;50.848;4.584;2022-11-15T08:08:24;11.50;99.90
22974;DHT22;11653;50.848;4.584;2022-11-15T08:10:49;11.40;99.90
22974;DHT22;11653;50.848;4.584;2022-11-15T08:13:16;11.60;99.90
22974;DHT22;11653;50.848;4.584;2022-11-15T08:15:42;11.60;99.90
22974;DHT22;11653;50.848;4.584;2022-11-15T08:18:14;11.50;99.90
22974;DHT22;11653;50.848;4.584;2022-11-15T08:20:40;11.30;99.90
22974;DHT22;11653;50.848;4.584;2022-11-15T08:23:07;11.20;99.90
22974;DHT22;11653;50.848;4.584;2022-11-15T08:25:34;11.30;99.90
22974;DHT22;11653;50.848;4.584;2022-11-15T08:28:03;11.50;99.90
22974;DHT22;11653;50.848;4.584;2022-11-15T08:30:29;11.50;99.90
22974;DHT22;11653;50.848;4.584;2022-11-15T08:32:57;11.60;99.90
22974;DHT22;11653;50.848;4.584;2022-11-15T08:35:23;11.80;99.90
22974;DHT22;11653;50.848;4.584;2022-11-15T08:37:50;11.70;99.90
22974;DHT22;11653;50.848;4.584;2022-11-15T08:40:17;11.60;99.90
22974;DHT22;11653;50.848;4.584;2022-11-15T08:42:46;11.60;99.90
22974;DHT22;11653;50.848;4.584;2022-11-15T08:45:12;11.70;99.90
22974;DHT22;11653;50.848;4.584;2022-11-15T08:47:37;11.80;99.90
22974;DHT22;11653;50.848;4.584;2022-11-15T08:50:03;11.80;99.90
22974;DHT22;11653;50.848;4.584;2022-11-15T08:52:29;11.90;99.90
22974;DHT22;11653;50.848;4.584;2022-11-15T08:54:55;12.00;99.90
22974;DHT22;11653;50.848;4.584;2022-11-15T08:57:20;11.90;99.90
22974;DHT22;11653;50.848;4.584;2022-11-15T08:59:46;11.90;99.90
22974;DHT22;11653;50.848;4.584;2022-11-15T09:02:13;11.80;99.90
22974;DHT22;11653;50.848;4.584;2022-11-15T09:04:43;11.90;99.90
22974;DHT22;11653;50.848;4.584;2022-11-15T09:07:10;12.00;99.90
22974;DHT22;11653;50.848;4.584;2022-11-15T09:09:36;12.00;99.90
22974;DHT22;11653;50.848;4.584;2022-11-15T09:12:02;12.20;99.90
22974;DHT22;11653;50.848;4.584;2022-11-15T09:14:28;12.30;99.90
22974;DHT22;11653;50.848;4.584;2022-11-15T09:16:53;12.50;99.90
22974;DHT22;11653;50.848;4.584;2022-11-15T09:19:19;12.50;99.90
22974;DHT22;11653;50.848;4.584;2022-11-15T09:21:45;12.40;99.90
22974;DHT22;11653;50.848;4.584;2022-11-15T09:24:10;12.40;99.90
22974;DHT22;11653;50.848;4.584;2022-11-15T09:26:36;12.60;99.90
22974;DHT22;11653;50.848;4.584;2022-11-15T09:29:02;12.60;99.90
22974;DHT22;11653;50.848;4.584;2022-11-15T09:31:29;12.60;99.90
22974;DHT22;11653;50.848;4.584;2022-11-15T09:33:55;12.70;99.90
22974;DHT22;11653;50.848;4.584;2022-11-15T09:36:21;12.90;99.90
22974;DHT22;11653;50.848;4.584;2022-11-15T09:38:46;13.10;99.90
22974;DHT22;11653;50.848;4.584;2022-11-15T09:43:47;12.80;99.90
22974;DHT22;11653;50.848;4.584;2022-11-15T09:54:03;13.20;99.90
22974;DHT22;11653;50.848;4.584;2022-11-15T09:56:31;13.30;99.90
22974;DHT22;11653;50.848;4.584;2022-11-15T10:04:31;15.20;99.90
22974;DHT22;11653;50.848;4.584;2022-11-15T10:10:01;16.70;99.90
22974;DHT22;11653;50.848;4.584;2022-11-15T10:12:27;17.00;99.90
22974;DHT22;11653;50.848;4.584;2022-11-15T10:15:11;17.20;99.90
22974;DHT22;11653;50.848;4.584;2022-11-15T10:20:29;17.60;99.90
22974;DHT22;11653;50.848;4.584;2022-11-15T10:23:05;17.50;99.90
22974;DHT22;11653;50.848;4.584;2022-11-15T10:25:33;17.60;99.90
22974;DHT22;11653;50.848;4.584;2022-11-15T10:28:17;17.40;99.90
22974;DHT22;11653;50.848;4.584;2022-11-15T10:30:57;17.30;99.90
22974;DHT22;11653;50.848;4.584;2022-11-15T10:35:49;17.00;99.90
22974;DHT22;11653;50.848;4.584;2022-11-15T10:46:34;17.20;99.90
22974;DHT22;11653;50.848;4.584;2022-11-15T10:49:24;17.20;99.90
22974;DHT22;11653;50.848;4.584;2022-11-15T10:52:02;17.30;99.90
22974;DHT22;11653;50.848;4.584;2022-11-15T10:54:29;17.40;99.90
22974;DHT22;11653;50.848;4.584;2022-11-15T10:56:58;17.20;99.90
22974;DHT22;11653;50.848;4.584;2022-11-15T10:59:30;17.00;99.90
22974;DHT22;11653;50.848;4.584;2022-11-15T11:01:57;16.60;99.90
22974;DHT22;11653;50.848;4.584;2022-11-15T11:04:23;15.80;99.90
22974;DHT22;11653;50.848;4.584;2022-11-15T11:06:58;15.40;99.90
22974;DHT22;11653;50.848;4.584;2022-11-15T11:09:37;15.00;99.90
22974;DHT22;11653;50.848;4.584;2022-11-15T11:12:05;14.60;99.90
22974;DHT22;11653;50.848;4.584;2022-11-15T11:14:33;14.30;99.90
22974;DHT22;11653;50.848;4.584;2022-11-15T11:31:00;14.00;99.90
22974;DHT22;11653;50.848;4.584;2022-11-15T11:36:31;14.30;99.90
22974;DHT22;11653;50.848;4.584;2022-11-15T11:42:38;14.50;99.90
22974;DHT22;11653;50.848;4.584;2022-11-15T11:45:18;14.70;99.90
22974;DHT22;11653;50.848;4.584;2022-11-15T11:48:12;14.80;99.90
22974;DHT22;11653;50.848;4.584;2022-11-15T11:50:39;14.60;99.90
22974;DHT22;11653;50.848;4.584;2022-11-15T11:53:19;14.70;99.90
22974;DHT22;11653;50.848;4.584;2022-11-15T11:55:52;14.70;99.90
22974;DHT22;11653;50.848;4.584;2022-11-15T11:58:28;14.60;99.90
22974;DHT22;11653;50.848;4.584;2022-11-15T12:03:44;14.70;99.90
22974;DHT22;11653;50.848;4.584;2022-11-15T12:11:55;14.50;99.90
22974;DHT22;11653;50.848;4.584;2022-11-15T12:14:45;14.60;99.90
22974;DHT22;11653;50.848;4.584;2022-11-15T12:17:13;14.60;99.90
22974;DHT22;11653;50.848;4.584;2022-11-15T12:19:41;14.50;99.90
22974;DHT22;11653;50.848;4.584;2022-11-15T12:22:20;14.40;99.90
22974;DHT22;11653;50.848;4.584;2022-11-15T12:24:55;14.50;99.90
22974;DHT22;11653;50.848;4.584;2022-11-15T12:27:46;14.50;99.90
22974;DHT22;11653;50.848;4.584;2022-11-15T12:30:17;14.40;99.90
22974;DHT22;11653;50.848;4.584;2022-11-15T12:32:57;14.30;99.90
22974;DHT22;11653;50.848;4.584;2022-11-15T12:35:43;14.10;99.90
22974;DHT22;11653;50.848;4.584;2022-11-15T12:38:12;14.20;99.90
22974;DHT22;11653;50.848;4.584;2022-11-15T12:41:11;14.10;99.90
22974;DHT22;11653;50.848;4.584;2022-11-15T12:43:42;14.30;99.90
22974;DHT22;11653;50.848;4.584;2022-11-15T12:49:01;14.20;99.90
22974;DHT22;11653;50.848;4.584;2022-11-15T12:59:49;14.10;99.90
22974;DHT22;11653;50.848;4.584;2022-11-15T13:04:45;14.40;99.90
22974;DHT22;11653;50.848;4.584;2022-11-15T13:12:59;14.50;99.90
22974;DHT22;11653;50.848;4.584;2022-11-15T13:15:46;14.60;99.90
22974;DHT22;11653;50.848;4.584;2022-11-15T13:18:28;14.60;99.90
22974;DHT22;11653;50.848;4.584;2022-11-15T13:20:54;14.80;99.90
22974;DHT22;11653;50.848;4.584;2022-11-15T13:23:21;14.80;99.90
22974;DHT22;11653;50.848;4.584;2022-11-15T13:31:29;14.90;99.90
22974;DHT22;11653;50.848;4.584;2022-11-15T13:33:58;14.70;99.90
22974;DHT22;11653;50.848;4.584;2022-11-15T13:36:31;14.70;99.90
22974;DHT22;11653;50.848;4.584;2022-11-15T13:39:14;14.70;99.90
22974;DHT22;11653;50.848;4.584;2022-11-15T13:41:50;14.50;99.90
22974;DHT22;11653;50.848;4.584;2022-11-15T13:44:38;14.60;99.90
22974;DHT22;11653;50.848;4.584;2022-11-15T13:47:13;14.60;99.90
22974;DHT22;11653;50.848;4.584;2022-11-15T13:49:39;14.70;99.90
22974;DHT22;11653;50.848;4.584;2022-11-15T13:52:07;14.50;99.90
22974;DHT22;11653;50.848;4.584;2022-11-15T13:54:45;14.40;99.90
22974;DHT22;11653;50.848;4.584;2022-11-15T13:57:17;14.60;99.90
22974;DHT22;11653;50.848;4.584;2022-11-15T13:59:53;14.70;99.90
22974;DHT22;11653;50.848;4.584;2022-11-15T14:02:31;14.70;99.90
22974;DHT22;11653;50.848;4.584;2022-11-15T14:05:04;14.70;99.90
22974;DHT22;11653;50.848;4.584;2022-11-15T14:07:30;14.80;99.90
22974;DHT22;11653;50.848;4.584;2022-11-15T14:09:56;14.80;99.90
22974;DHT22;11653;50.848;4.584;2022-11-15T14:12:31;14.80;99.90
22974;DHT22;11653;50.848;4.584;2022-11-15T14:14:59;14.80;99.90
22974;DHT22;11653;50.848;4.584;2022-11-15T14:19:54;14.70;99.90
22974;DHT22;11653;50.848;4.584;2022-11-15T14:22:24;14.50;99.90
22974;DHT22;11653;50.848;4.584;2022-11-15T14:27:40;14.70;99.90
22974;DHT22;11653;50.848;4.584;2022-11-15T14:30:12;14.50;99.90
22974;DHT22;11653;50.848;4.584;2022-11-15T14:32:45;14.50;99.90
22974;DHT22;11653;50.848;4.584;2022-11-15T14:35:21;14.30;99.90
22974;DHT22;11653;50.848;4.584;2022-11-15T14:37:47;14.20;99.90
22974;DHT22;11653;50.848;4.584;2022-11-15T14:40:15;14.00;99.90
22974;DHT22;11653;50.848;4.584;2022-11-15T14:42:43;14.00;99.90
22974;DHT22;11653;50.848;4.584;2022-11-15T14:45:15;14.00;99.90
22974;DHT22;11653;50.848;4.584;2022-11-15T14:47:41;14.10;99.90
22974;DHT22;11653;50.848;4.584;2022-11-15T14:50:12;14.30;99.90
22974;DHT22;11653;50.848;4.584;2022-11-15T14:52:37;14.30;99.90
22974;DHT22;11653;50.848;4.584;2022-11-15T14:55:31;14.30;99.90
22974;DHT22;11653;50.848;4.584;2022-11-15T14:57:58;14.40;99.90
22974;DHT22;11653;50.848;4.584;2022-11-15T15:00:24;14.50;99.90
22974;DHT22;11653;50.848;4.584;2022-11-15T15:02:53;14.30;99.90
22974;DHT22;11653;50.848;4.584;2022-11-15T15:05:21;14.10;99.90
22974;DHT22;11653;50.848;4.584;2022-11-15T15:07:47;14.20;99.90
22974;DHT22;11653;50.848;4.584;2022-11-15T15:10:14;14.10;99.90
22974;DHT22;11653;50.848;4.584;2022-11-15T15:12:41;14.00;99.90
22974;DHT22;11653;50.848;4.584;2022-11-15T15:15:13;14.10;99.90
22974;DHT22;11653;50.848;4.584;2022-11-15T15:17:39;14.10;99.90
22974;DHT22;11653;50.848;4.584;2022-11-15T15:20:05;14.20;99.90
22974;DHT22;11653;50.848;4.584;2022-11-15T15:22:31;14.20;99.90
22974;DHT22;11653;50.848;4.584;2022-11-15T15:24:57;14.20;99.90
22974;DHT22;11653;50.848;4.584;2022-11-15T15:27:22;14.10;99.90
22974;DHT22;11653;50.848;4.584;2022-11-15T15:29:48;14.00;99.90
22974;DHT22;11653;50.848;4.584;2022-11-15T15:32:14;13.90;99.90
22974;DHT22;11653;50.848;4.584;2022-11-15T15:34:39;13.80;99.90
22974;DHT22;11653;50.848;4.584;2022-11-15T15:37:24;13.80;99.90
22974;DHT22;11653;50.848;4.584;2022-11-15T15:39:55;13.90;99.90
22974;DHT22;11653;50.848;4.584;2022-11-15T15:42:22;14.00;99.90
22974;DHT22;11653;50.848;4.584;2022-11-15T15:44:49;13.90;99.90
22974;DHT22;11653;50.848;4.584;2022-11-15T15:47:20;13.70;99.90
22974;DHT22;11653;50.848;4.584;2022-11-15T15:49:46;13.70;99.90
22974;DHT22;11653;50.848;4.584;2022-11-15T15:52:12;13.70;99.90
22974;DHT22;11653;50.848;4.584;2022-11-15T15:54:39;13.80;99.90
22974;DHT22;11653;50.848;4.584;2022-11-15T15:57:05;13.70;99.90
22974;DHT22;11653;50.848;4.584;2022-11-15T15:59:31;13.60;99.90
22974;DHT22;11653;50.848;4.584;2022-11-15T16:01:57;13.70;99.90
22974;DHT22;11653;50.848;4.584;2022-11-15T16:04:22;13.60;99.90
22974;DHT22;11653;50.848;4.584;2022-11-15T16:06:48;13.50;99.90
22974;DHT22;11653;50.848;4.584;2022-11-15T16:09:17;13.40;99.90
22974;DHT22;11653;50.848;4.584;2022-11-15T16:11:46;13.30;99.90
22974;DHT22;11653;50.848;4.584;2022-11-15T16:14:12;13.30;99.90
22974;DHT22;11653;50.848;4.584;2022-11-15T16:16:38;13.40;99.90
22974;DHT22;11653;50.848;4.584;2022-11-15T16:19:04;13.30;99.90
22974;DHT22;11653;50.848;4.584;2022-11-15T16:21:30;13.20;99.90
22974;DHT22;11653;50.848;4.584;2022-11-15T16:23:56;13.20;99.90
22974;DHT22;11653;50.848;4.584;2022-11-15T16:26:25;13.30;99.90
22974;DHT22;11653;50.848;4.584;2022-11-15T16:28:51;13.40;99.90
22974;DHT22;11653;50.848;4.584;2022-11-15T16:31:17;13.30;99.90
22974;DHT22;11653;50.848;4.584;2022-11-15T16:33:45;13.20;99.90
22974;DHT22;11653;50.848;4.584;2022-11-15T16:36:26;13.40;99.90
22974;DHT22;11653;50.848;4.584;2022-11-15T16:38:52;13.40;99.90
22974;DHT22;11653;50.848;4.584;2022-11-15T16:41:18;13.40;99.90
22974;DHT22;11653;50.848;4.584;2022-11-15T16:43:48;13.50;99.90
22974;DHT22;11653;50.848;4.584;2022-11-15T16:46:25;13.30;99.90
22974;DHT22;11653;50.848;4.584;2022-11-15T16:48:51;13.20;99.90
22974;DHT22;11653;50.848;4.584;2022-11-15T16:51:18;13.10;99.90
22974;DHT22;11653;50.848;4.584;2022-11-15T16:53:44;13.10;99.90
22974;DHT22;11653;50.848;4.584;2022-11-15T16:56:28;13.20;99.90
22974;DHT22;11653;50.848;4.584;2022-11-15T16:58:59;13.30;99.90
22974;DHT22;11653;50.848;4.584;2022-11-15T17:01:33;13.30;99.90
22974;DHT22;11653;50.848;4.584;2022-11-15T17:04:00;13.20;99.90
22974;DHT22;11653;50.848;4.584;2022-11-15T17:06:46;13.30;99.90
22974;DHT22;11653;50.848;4.584;2022-11-15T17:09:13;13.30;99.90
22974;DHT22;11653;50.848;4.584;2022-11-15T17:11:40;13.30;99.90
22974;DHT22;11653;50.848;4.584;2022-11-15T17:14:06;13.30;99.90
22974;DHT22;11653;50.848;4.584;2022-11-15T17:16:32;13.20;99.90
22974;DHT22;11653;50.848;4.584;2022-11-15T17:19:00;13.30;99.90
22974;DHT22;11653;50.848;4.584;2022-11-15T17:21:26;13.40;99.90
22974;DHT22;11653;50.848;4.584;2022-11-15T17:23:53;13.40;99.90
22974;DHT22;11653;50.848;4.584;2022-11-15T17:26:19;13.30;99.90
22974;DHT22;11653;50.848;4.584;2022-11-15T17:28:45;13.40;99.90
22974;DHT22;11653;50.848;4.584;2022-11-15T17:31:12;13.40;99.90
22974;DHT22;11653;50.848;4.584;2022-11-15T17:33:38;13.40;99.90
22974;DHT22;11653;50.848;4.584;2022-11-15T17:36:10;13.30;99.90
22974;DHT22;11653;50.848;4.584;2022-11-15T17:38:36;13.40;99.90
22974;DHT22;11653;50.848;4.584;2022-11-15T17:41:11;13.50;99.90
22974;DHT22;11653;50.848;4.584;2022-11-15T17:43:37;13.50;99.90
22974;DHT22;11653;50.848;4.584;2022-11-15T17:46:09;13.50;99.90
22974;DHT22;11653;50.848;4.584;2022-11-15T17:48:35;13.50;99.90
22974;DHT22;11653;50.848;4.584;2022-11-15T17:51:04;13.60;99.90
22974;DHT22;11653;50.848;4.584;2022-11-15T17:53:35;13.60;99.90
22974;DHT22;11653;50.848;4.584;2022-11-15T17:56:06;13.60;99.90
22974;DHT22;11653;50.848;4.584;2022-11-15T17:58:33;13.60;99.90
22974;DHT22;11653;50.848;4.584;2022-11-15T18:03:35;13.40;99.90
22974;DHT22;11653;50.848;4.584;2022-11-15T18:06:03;13.40;99.90
22974;DHT22;11653;50.848;4.584;2022-11-15T18:08:28;13.40;99.90
22974;DHT22;11653;50.848;4.584;2022-11-15T18:11:09;13.50;99.90
22974;DHT22;11653;50.848;4.584;2022-11-15T18:13:36;13.40;99.90
22974;DHT22;11653;50.848;4.584;2022-11-15T18:16:04;13.50;99.90
22974;DHT22;11653;50.848;4.584;2022-11-15T18:18:31;13.60;99.90
22974;DHT22;11653;50.848;4.584;2022-11-15T18:21:27;13.50;99.90
22974;DHT22;11653;50.848;4.584;2022-11-15T18:23:57;13.50;99.90
22974;DHT22;11653;50.848;4.584;2022-11-15T18:26:25;13.50;99.90
22974;DHT22;11653;50.848;4.584;2022-11-15T18:28:53;13.50;99.90
22974;DHT22;11653;50.848;4.584;2022-11-15T18:31:28;13.50;99.90